createdAt,value
2019-05-16T00:02:14.134Z,11.53
2019-05-16T00:07:10.057Z,11.28
2019-05-16T00:12:08.577Z,11.20
2019-05-16T00:17:04.127Z,11.18
2019-05-16T00:22:00.166Z,11.08
2019-05-16T00:26:58.009Z,10.98
2019-05-16T00:31:54.028Z,10.82
2019-05-16T00:36:49.949Z,10.72
2019-05-16T00:41:47.878Z,10.72
2019-05-16T00:46:43.895Z,10.63
2019-05-16T00:51:39.926Z,10.66
2019-05-16T00:56:38.259Z,10.57
2019-05-16T01:01:33.996Z,10.49
2019-05-16T01:06:29.893Z,10.49
2019-05-16T01:11:27.772Z,10.35
2019-05-16T01:16:23.665Z,10.26
2019-05-16T01:21:19.597Z,10.28
2019-05-16T01:26:15.551Z,10.27
2019-05-16T01:31:11.476Z,10.23
2019-05-16T01:36:09.016Z,10.18
2019-05-16T01:41:05.232Z,10.23
2019-05-16T01:46:01.174Z,10.23
2019-05-16T01:50:58.362Z,10.13
2019-05-16T01:55:54.588Z,10.07
2019-05-16T02:01:03.033Z,10.19
2019-05-16T02:05:48.456Z,10.16
2019-05-16T02:10:44.384Z,10.25
2019-05-16T02:15:40.317Z,10.15
2019-05-16T02:20:39.030Z,10.14
2019-05-16T02:25:34.186Z,10.07
2019-05-16T02:30:31.520Z,10.00
2019-05-16T02:35:27.653Z,9.97
2019-05-16T02:40:23.911Z,9.87
2019-05-16T02:45:23.871Z,10.00
2019-05-16T02:50:18.082Z,9.99
2019-05-16T02:55:14.121Z,9.99
2019-05-16T03:00:12.125Z,10.02
2019-05-16T03:05:11.626Z,9.84
2019-05-16T03:10:07.024Z,9.73
2019-05-16T03:15:05.114Z,9.71
2019-05-16T03:20:01.617Z,9.72
2019-05-16T03:25:00.686Z,9.71
2019-05-16T03:29:55.731Z,9.62
2019-05-16T03:34:54.835Z,9.55
2019-05-16T03:39:51.489Z,9.38
2019-05-16T03:44:47.369Z,9.39
2019-05-16T03:49:43.298Z,9.54
2019-05-16T03:54:42.018Z,9.58
2019-05-16T03:59:40.701Z,9.47
2019-05-16T04:04:35.530Z,9.63
2019-05-16T04:09:31.752Z,9.48
2019-05-16T04:14:30.704Z,9.58
2019-05-16T04:19:25.667Z,9.55
2019-05-16T04:24:21.952Z,9.51
2019-05-16T04:29:20.669Z,9.52
2019-05-16T04:34:16.448Z,9.65
2019-05-16T04:39:12.370Z,9.55
2019-05-16T04:44:11.633Z,9.67
2019-05-16T04:49:06.865Z,9.75
2019-05-16T04:54:06.751Z,9.83
2019-05-16T04:59:15.952Z,10.01
2019-05-16T05:04:14.291Z,9.95
2019-05-16T05:09:05.556Z,10.02
2019-05-16T05:14:01.484Z,10.40
2019-05-16T05:19:00.148Z,10.32
2019-05-16T05:23:55.349Z,10.51
2019-05-16T05:28:55.496Z,10.10
2019-05-16T05:33:51.426Z,10.07
2019-05-16T05:38:49.115Z,10.30
2019-05-16T05:43:45.199Z,10.12
2019-05-16T05:48:41.286Z,10.46
2019-05-16T05:53:37.266Z,10.58
2019-05-16T05:58:37.489Z,10.43
2019-05-16T06:03:33.650Z,10.78
2019-05-16T06:08:30.580Z,10.27
2019-05-16T06:13:30.832Z,10.71
2019-05-16T06:18:26.456Z,10.78
2019-05-16T06:23:22.427Z,10.17
2019-05-16T06:28:20.819Z,10.17
2019-05-16T06:33:19.771Z,10.27
2019-05-16T06:38:15.090Z,10.53
2019-05-16T06:43:11.451Z,10.22
2019-05-16T06:48:09.889Z,10.27
2019-05-16T06:53:05.712Z,10.23
2019-05-16T06:58:02.294Z,10.12
2019-05-16T07:03:00.427Z,10.09
2019-05-16T07:07:59.722Z,10.14
2019-05-16T07:12:55.720Z,10.56
2019-05-16T07:17:52.182Z,10.70
2019-05-16T07:22:50.334Z,10.72
2019-05-16T07:27:47.479Z,11.10
2019-05-16T07:32:44.330Z,11.12
2019-05-16T07:37:40.444Z,11.25
2019-05-16T07:42:36.383Z,10.85
2019-05-16T07:47:32.294Z,11.10
2019-05-16T07:52:35.238Z,11.37
2019-05-16T07:57:26.154Z,11.13
2019-05-16T08:02:22.119Z,11.28
2019-05-16T08:07:20.140Z,11.05
2019-05-16T08:12:16.107Z,11.71
2019-05-16T08:17:12.046Z,11.64
2019-05-16T08:22:10.617Z,11.35
2019-05-16T08:27:05.893Z,11.13
2019-05-16T08:32:02.365Z,11.07
2019-05-16T08:37:01.116Z,11.32
2019-05-16T08:42:03.436Z,11.72
2019-05-16T08:46:57.917Z,12.06
2019-05-16T08:51:53.045Z,11.98
2019-05-16T09:01:53.401Z,11.36
2019-05-16T09:06:45.296Z,10.99
2019-05-16T09:10:14.344Z,11.32
2019-05-16T09:11:44.891Z,11.71
2019-05-16T09:16:39.267Z,11.33
2019-05-16T09:21:38.200Z,11.64
2019-05-16T09:26:33.106Z,11.84
2019-05-16T09:31:30.677Z,11.50
2019-05-16T09:36:28.017Z,11.82
2019-05-16T09:41:27.146Z,11.70
2019-05-16T09:46:22.453Z,11.74
2019-05-16T09:51:21.344Z,12.15
2019-05-16T09:56:16.772Z,11.86
2019-05-16T10:01:13.055Z,11.96
2019-05-16T10:06:08.991Z,11.16
2019-05-16T10:11:06.352Z,11.53
2019-05-16T10:16:02.472Z,11.39
2019-05-16T10:20:59.294Z,11.49
2019-05-16T10:25:56.784Z,11.78
2019-05-16T10:30:53.010Z,11.63
2019-05-16T10:35:49.156Z,11.93
2019-05-16T10:40:47.328Z,12.05
2019-05-16T10:45:42.998Z,11.75
2019-05-16T10:50:39.075Z,11.87
2019-05-16T10:55:36.801Z,11.58
2019-05-16T11:00:57.653Z,11.69
2019-05-16T11:05:36.066Z,11.98
2019-05-16T11:10:29.734Z,11.80
2019-05-16T11:15:27.856Z,12.00
2019-05-16T11:20:26.825Z,12.03
2019-05-16T11:25:28.576Z,11.95
2019-05-16T11:30:22.026Z,12.87
2019-05-16T11:35:18.298Z,12.21
2019-05-16T11:40:17.846Z,11.93
2019-05-16T11:45:13.914Z,11.82
2019-05-16T11:50:09.951Z,12.41
2019-05-16T11:55:07.634Z,11.57
2019-05-16T12:00:08.022Z,11.71
2019-05-16T12:05:04.759Z,11.80
2019-05-16T12:10:00.864Z,11.97
2019-05-16T12:14:58.347Z,12.01
2019-05-16T12:19:57.535Z,11.56
2019-05-16T12:24:53.190Z,11.62
2019-05-16T12:29:54.837Z,11.59
2019-05-16T12:34:47.014Z,11.46
2019-05-16T12:39:43.043Z,11.24
2019-05-16T12:44:39.340Z,11.32
2019-05-16T12:49:37.766Z,11.52
2019-05-16T12:54:36.875Z,11.32
2019-05-16T12:59:42.183Z,11.06
2019-05-16T13:04:42.316Z,11.04
2019-05-16T13:09:40.277Z,11.20
2019-05-16T13:14:40.388Z,10.94
2019-05-16T13:19:44.054Z,11.02
2019-05-16T13:24:39.823Z,10.62
2019-05-16T13:29:41.302Z,10.45
2019-05-16T13:34:38.694Z,10.47
2019-05-16T13:39:36.029Z,10.32
2019-05-16T13:44:33.142Z,10.18
2019-05-16T13:49:29.074Z,10.10
2019-05-16T13:54:28.153Z,10.17
2019-05-16T13:59:37.368Z,10.24
2019-05-16T14:04:34.393Z,10.22
2019-05-16T14:09:32.739Z,10.26
2019-05-16T14:14:38.179Z,10.20
2019-05-16T14:19:33.128Z,10.37
2019-05-16T14:24:30.296Z,10.17
2019-05-16T14:29:28.685Z,10.42
2019-05-16T14:34:27.865Z,10.40
2019-05-16T14:39:28.645Z,10.36
2019-05-16T14:44:28.683Z,10.25
2019-05-16T14:49:29.026Z,10.09
2019-05-16T14:54:31.403Z,10.08
2019-05-16T14:59:36.505Z,10.35
2019-05-16T15:04:33.421Z,10.18
2019-05-16T15:09:32.564Z,10.23
2019-05-16T15:14:32.438Z,10.11
2019-05-16T15:19:29.527Z,9.95
2019-05-16T15:24:26.991Z,10.40
2019-05-16T15:29:27.232Z,10.17
2019-05-16T15:34:24.084Z,10.08
2019-05-16T15:39:20.948Z,9.88
2019-05-16T15:44:17.844Z,9.79
2019-05-16T15:49:14.178Z,9.91
2019-05-16T15:54:14.443Z,9.87
2019-05-16T15:59:17.985Z,10.03
2019-05-16T16:09:30.900Z,9.85
2019-05-16T16:14:27.484Z,9.79
2019-05-16T16:19:23.568Z,9.77
2019-05-16T16:24:19.630Z,9.99
2019-05-16T16:29:16.891Z,10.01
2019-05-16T16:34:13.067Z,9.98
2019-05-16T16:39:09.122Z,9.91
2019-05-16T16:44:07.470Z,10.01
2019-05-16T16:49:03.131Z,10.20
2019-05-16T16:53:59.169Z,10.24
2019-05-16T16:58:55.121Z,10.34
2019-05-16T17:03:54.542Z,10.13
2019-05-16T17:08:48.935Z,10.09
2019-05-16T17:13:47.052Z,10.24
2019-05-16T17:18:42.723Z,10.41
2019-05-16T17:23:38.652Z,10.19
2019-05-16T17:28:37.089Z,10.06
2019-05-16T17:33:32.551Z,10.21
2019-05-16T17:38:28.485Z,10.07
2019-05-16T17:43:26.840Z,10.03
2019-05-16T17:48:22.358Z,10.12
2019-05-16T17:53:18.288Z,10.10
2019-05-16T17:58:16.338Z,10.14
2019-05-16T18:03:12.190Z,10.09
2019-05-16T18:08:08.090Z,10.30
2019-05-16T18:13:04.417Z,10.12
2019-05-16T18:18:00.346Z,10.18
2019-05-16T18:22:56.922Z,10.26
2019-05-16T18:27:53.009Z,10.30
2019-05-16T18:32:49.037Z,10.16
2019-05-16T18:37:46.491Z,10.13
2019-05-16T18:42:42.505Z,10.00
2019-05-16T18:47:38.445Z,10.20
2019-05-16T18:52:37.241Z,10.14
2019-05-16T18:57:32.723Z,10.20
2019-05-16T19:02:29.537Z,10.33
2019-05-16T19:07:27.333Z,10.25
2019-05-16T19:12:23.327Z,10.19
2019-05-16T19:17:24.231Z,10.27
2019-05-16T19:22:17.196Z,10.14
2019-05-16T19:27:13.142Z,10.14
2019-05-16T19:32:09.079Z,10.15
2019-05-16T19:37:16.184Z,10.03
2019-05-16T19:42:36.786Z,10.03
2019-05-16T19:47:40.855Z,10.32
2019-05-16T19:57:57.186Z,10.03
2019-05-16T20:02:56.874Z,10.15
2019-05-16T20:07:55.349Z,10.21
2019-05-16T20:12:56.927Z,10.10
2019-05-16T20:17:58.682Z,10.03
2019-05-16T20:22:57.391Z,10.12
2019-05-16T20:27:54.600Z,10.02
2019-05-16T20:32:50.748Z,9.99
2019-05-16T20:37:47.389Z,9.94
2019-05-16T20:42:43.660Z,9.86
2019-05-16T20:47:40.008Z,9.88
2019-05-16T20:52:37.761Z,9.84
2019-05-16T20:57:34.375Z,9.86
2019-05-16T21:02:30.472Z,9.89
2019-05-16T21:07:26.693Z,9.96
2019-05-16T21:12:22.900Z,10.00
2019-05-16T21:17:18.932Z,10.07
2019-05-16T21:22:16.223Z,10.13
2019-05-16T21:27:13.034Z,10.22
2019-05-16T21:32:09.121Z,10.21
2019-05-16T21:37:14.560Z,10.22
2019-05-16T21:42:03.698Z,10.15
2019-05-16T21:47:00.065Z,10.17
2019-05-16T21:51:57.122Z,10.15
2019-05-16T21:56:53.627Z,10.07
2019-05-16T22:01:49.705Z,10.08
2019-05-16T22:06:47.531Z,10.20
2019-05-16T22:11:43.843Z,10.23
2019-05-16T22:16:40.271Z,10.10
2019-05-16T22:21:36.401Z,10.10
2019-05-16T22:26:32.609Z,10.14
2019-05-16T22:31:28.965Z,10.06
2019-05-16T22:36:26.595Z,10.15
2019-05-16T22:41:23.083Z,10.24
2019-05-16T22:46:19.284Z,10.14
2019-05-16T22:51:16.497Z,10.10
2019-05-16T22:56:12.895Z,10.18
2019-05-16T23:01:09.219Z,10.04
2019-05-16T23:06:07.713Z,9.95
2019-05-16T23:11:03.629Z,10.04
2019-05-16T23:15:59.818Z,10.11
2019-05-16T23:20:57.091Z,9.89
2019-05-16T23:25:53.451Z,10.12
2019-05-16T23:30:49.568Z,10.10
2019-05-16T23:35:46.838Z,10.06
2019-05-16T23:40:43.262Z,9.95
2019-05-16T23:45:39.477Z,9.89
2019-05-16T23:50:37.270Z,9.90
2019-05-16T23:55:33.343Z,9.78
